sensor_id;sensor_type;location;lat;lon;timestamp;pressure;altitude;pressure_sealevel;temperature;humidity
70758;BME280;59316;52.964;7.102;2023-03-15T00:05:18;63551.88;;;-143.20;100.00
70758;BME280;59316;52.964;7.102;2023-03-15T00:10:42;63551.88;;;-143.20;100.00
70758;BME280;59316;52.964;7.102;2023-03-15T00:16:05;63551.88;;;-143.20;100.00
70758;BME280;59316;52.964;7.102;2023-03-15T00:21:27;63551.88;;;-143.20;100.00
70758;BME280;59316;52.964;7.102;2023-03-15T00:26:48;63551.88;;;-143.20;100.00
70758;BME280;59316;52.964;7.102;2023-03-15T00:32:09;63551.88;;;-143.20;100.00
70758;BME280;59316;52.964;7.102;2023-03-15T00:37:32;63551.88;;;-143.20;100.00
70758;BME280;59316;52.964;7.102;2023-03-15T00:42:53;63551.88;;;-143.20;100.00
70758;BME280;59316;52.964;7.102;2023-03-15T00:48:14;63551.88;;;-143.20;100.00
70758;BME280;59316;52.964;7.102;2023-03-15T00:53:37;63551.88;;;-143.20;100.00
70758;BME280;59316;52.964;7.102;2023-03-15T00:59:00;63551.88;;;-143.20;100.00
70758;BME280;59316;52.964;7.102;2023-03-15T01:04:23;63551.88;;;-143.20;100.00
70758;BME280;59316;52.964;7.102;2023-03-15T01:09:44;63551.88;;;-143.20;100.00
70758;BME280;59316;52.964;7.102;2023-03-15T01:15:09;63551.88;;;-143.20;100.00
70758;BME280;59316;52.964;7.102;2023-03-15T01:20:32;63551.88;;;-143.20;100.00
70758;BME280;59316;52.964;7.102;2023-03-15T01:25:54;63551.88;;;-143.20;100.00
70758;BME280;59316;52.964;7.102;2023-03-15T01:31:20;63551.88;;;-143.20;100.00
70758;BME280;59316;52.964;7.102;2023-03-15T01:36:49;63551.88;;;-143.20;100.00
70758;BME280;59316;52.964;7.102;2023-03-15T01:42:11;63551.88;;;-143.20;100.00
70758;BME280;59316;52.964;7.102;2023-03-15T01:47:32;63551.88;;;-143.20;100.00
70758;BME280;59316;52.964;7.102;2023-03-15T01:52:55;63551.88;;;-143.20;100.00
70758;BME280;59316;52.964;7.102;2023-03-15T01:58:16;63551.88;;;-143.20;100.00
70758;BME280;59316;52.964;7.102;2023-03-15T02:03:41;63551.88;;;-143.20;100.00
70758;BME280;59316;52.964;7.102;2023-03-15T02:09:08;63551.88;;;-143.20;100.00
70758;BME280;59316;52.964;7.102;2023-03-15T02:14:32;63551.88;;;-143.20;100.00
70758;BME280;59316;52.964;7.102;2023-03-15T02:26:20;63551.88;;;-143.20;100.00
70758;BME280;59316;52.964;7.102;2023-03-15T02:31:51;63551.88;;;-143.20;100.00
70758;BME280;59316;52.964;7.102;2023-03-15T02:37:13;63551.88;;;-143.20;100.00
70758;BME280;59316;52.964;7.102;2023-03-15T02:42:34;63551.88;;;-143.20;100.00
70758;BME280;59316;52.964;7.102;2023-03-15T02:47:55;63551.88;;;-143.20;100.00
70758;BME280;59316;52.964;7.102;2023-03-15T02:53:18;63551.88;;;-143.20;100.00
70758;BME280;59316;52.964;7.102;2023-03-15T02:58:40;63551.88;;;-143.20;100.00
70758;BME280;59316;52.964;7.102;2023-03-15T03:04:02;63551.88;;;-143.20;100.00
70758;BME280;59316;52.964;7.102;2023-03-15T03:09:24;63551.88;;;-143.20;100.00
70758;BME280;59316;52.964;7.102;2023-03-15T03:14:46;63551.88;;;-143.20;100.00
70758;BME280;59316;52.964;7.102;2023-03-15T03:20:11;63551.88;;;-143.20;nan
70758;BME280;59316;52.964;7.102;2023-03-15T03:25:38;101113.16;;;1.73;nan
70758;BME280;59316;52.964;7.102;2023-03-15T03:30:59;101130.25;;;1.27;nan
70758;BME280;59316;52.964;7.102;2023-03-15T03:36:22;101138.66;;;1.37;nan
70758;BME280;59316;52.964;7.102;2023-03-15T03:41:44;101148.56;;;1.09;nan
70758;BME280;59316;52.964;7.102;2023-03-15T03:47:06;101157.97;;;1.11;nan
70758;BME280;59316;52.964;7.102;2023-03-15T03:52:28;101155.31;;;1.17;nan
70758;BME280;59316;52.964;7.102;2023-03-15T03:57:57;101184.59;;;1.13;nan
70758;BME280;59316;52.964;7.102;2023-03-15T04:03:38;101182.94;;;1.08;nan
70758;BME280;59316;52.964;7.102;2023-03-15T04:09:03;101202.28;;;0.77;nan
70758;BME280;59316;52.964;7.102;2023-03-15T04:14:32;101213.94;;;0.33;nan
70758;BME280;59316;52.964;7.102;2023-03-15T04:19:54;101228.75;;;0.12;nan
70758;BME280;59316;52.964;7.102;2023-03-15T04:25:21;101241.50;;;0.23;nan
70758;BME280;59316;52.964;7.102;2023-03-15T04:30:55;101244.88;;;0.27;nan
70758;BME280;59316;52.964;7.102;2023-03-15T04:36:34;101253.69;;;0.04;nan
70758;BME280;59316;52.964;7.102;2023-03-15T04:42:01;101266.66;;;-0.07;nan
70758;BME280;59316;52.964;7.102;2023-03-15T04:47:59;101276.94;;;-0.07;nan
70758;BME280;59316;52.964;7.102;2023-03-15T04:53:50;101297.13;;;0.33;nan
70758;BME280;59316;52.964;7.102;2023-03-15T04:59:40;101301.47;;;0.28;nan
70758;BME280;59316;52.964;7.102;2023-03-15T05:05:16;101308.63;;;-0.06;nan
70758;BME280;59316;52.964;7.102;2023-03-15T05:11:10;101303.31;;;0.14;nan
70758;BME280;59316;52.964;7.102;2023-03-15T05:16:51;101318.00;;;0.02;nan
70758;BME280;59316;52.964;7.102;2023-03-15T05:22:32;101319.13;;;-0.31;nan
70758;BME280;59316;52.964;7.102;2023-03-15T05:28:13;101314.16;;;-0.59;nan
70758;BME280;59316;52.964;7.102;2023-03-15T05:33:54;101327.06;;;-0.70;nan
70758;BME280;59316;52.964;7.102;2023-03-15T05:39:28;101334.81;;;-0.76;nan
70758;BME280;59316;52.964;7.102;2023-03-15T05:45:08;101345.09;;;-0.81;nan
70758;BME280;59316;52.964;7.102;2023-03-15T05:50:50;101344.03;;;-0.42;nan
70758;BME280;59316;52.964;7.102;2023-03-15T05:56:22;101352.44;;;-0.17;nan
70758;BME280;59316;52.964;7.102;2023-03-15T06:02:10;101379.63;;;0.16;nan
70758;BME280;59316;52.964;7.102;2023-03-15T06:07:43;101392.38;;;0.29;nan
70758;BME280;59316;52.964;7.102;2023-03-15T06:13:06;101395.00;;;0.24;nan
70758;BME280;59316;52.964;7.102;2023-03-15T06:18:28;101406.16;;;0.22;nan
70758;BME280;59316;52.964;7.102;2023-03-15T06:23:49;101412.13;;;0.25;nan
70758;BME280;59316;52.964;7.102;2023-03-15T06:29:11;101418.84;;;0.40;nan
70758;BME280;59316;52.964;7.102;2023-03-15T06:34:33;101420.53;;;0.47;nan
70758;BME280;59316;52.964;7.102;2023-03-15T06:39:55;101428.03;;;0.71;nan
70758;BME280;59316;52.964;7.102;2023-03-15T06:45:17;101441.81;;;0.66;nan
70758;BME280;59316;52.964;7.102;2023-03-15T06:50:40;101447.56;;;0.93;nan
70758;BME280;59316;52.964;7.102;2023-03-15T06:56:07;101461.44;;;1.59;nan
70758;BME280;59316;52.964;7.102;2023-03-15T07:01:29;101462.22;;;2.27;nan
70758;BME280;59316;52.964;7.102;2023-03-15T07:06:50;101466.72;;;2.15;nan
70758;BME280;59316;52.964;7.102;2023-03-15T07:12:12;101471.47;;;1.82;nan
70758;BME280;59316;52.964;7.102;2023-03-15T07:17:33;101481.13;;;1.65;nan
70758;BME280;59316;52.964;7.102;2023-03-15T07:22:55;101496.13;;;1.30;nan
70758;BME280;59316;52.964;7.102;2023-03-15T07:28:17;101488.34;;;1.37;nan
70758;BME280;59316;52.964;7.102;2023-03-15T07:33:39;101509.75;;;1.43;nan
70758;BME280;59316;52.964;7.102;2023-03-15T07:39:00;101509.38;;;1.74;nan
70758;BME280;59316;52.964;7.102;2023-03-15T07:44:22;101508.94;;;2.10;nan
70758;BME280;59316;52.964;7.102;2023-03-15T07:49:43;101527.13;;;2.60;nan
70758;BME280;59316;52.964;7.102;2023-03-15T07:55:05;101524.84;;;2.96;nan
70758;BME280;59316;52.964;7.102;2023-03-15T08:00:27;101536.34;;;3.28;nan
70758;BME280;59316;52.964;7.102;2023-03-15T08:05:50;101520.53;;;4.64;nan
70758;BME280;59316;52.964;7.102;2023-03-15T08:11:11;101528.44;;;5.60;nan
70758;BME280;59316;52.964;7.102;2023-03-15T08:16:33;101533.75;;;6.45;nan
70758;BME280;59316;52.964;7.102;2023-03-15T08:21:55;101543.25;;;6.73;nan
70758;BME280;59316;52.964;7.102;2023-03-15T08:27:16;101554.34;;;7.30;nan
70758;BME280;59316;52.964;7.102;2023-03-15T08:32:39;101557.66;;;8.08;nan
70758;BME280;59316;52.964;7.102;2023-03-15T08:38:01;101562.34;;;8.22;nan
70758;BME280;59316;52.964;7.102;2023-03-15T08:43:22;101554.41;;;8.25;nan
70758;BME280;59316;52.964;7.102;2023-03-15T08:48:43;101577.78;;;8.04;nan
70758;BME280;59316;52.964;7.102;2023-03-15T08:54:05;101575.59;;;8.62;nan
70758;BME280;59316;52.964;7.102;2023-03-15T08:59:26;101585.03;;;9.29;nan
70758;BME280;59316;52.964;7.102;2023-03-15T09:04:51;101600.69;;;8.64;nan
70758;BME280;59316;52.964;7.102;2023-03-15T09:10:15;101605.78;;;8.89;nan
70758;BME280;59316;52.964;7.102;2023-03-15T09:15:37;101614.44;;;8.46;nan
70758;BME280;59316;52.964;7.102;2023-03-15T09:20:58;101603.16;;;8.67;nan
70758;BME280;59316;52.964;7.102;2023-03-15T09:26:20;101610.59;;;8.78;nan
70758;BME280;59316;52.964;7.102;2023-03-15T09:31:41;101601.31;;;9.14;nan
70758;BME280;59316;52.964;7.102;2023-03-15T09:37:03;101610.44;;;9.65;nan
70758;BME280;59316;52.964;7.102;2023-03-15T09:48:15;101603.88;;;10.15;nan
70758;BME280;59316;52.964;7.102;2023-03-15T09:53:51;101612.34;;;10.40;nan
70758;BME280;59316;52.964;7.102;2023-03-15T09:59:14;101626.78;;;10.29;nan
70758;BME280;59316;52.964;7.102;2023-03-15T10:04:36;101622.69;;;10.62;nan
70758;BME280;59316;52.964;7.102;2023-03-15T10:09:58;101625.97;;;11.39;nan
70758;BME280;59316;52.964;7.102;2023-03-15T10:15:38;101645.88;;;11.76;nan
70758;BME280;59316;52.964;7.102;2023-03-15T10:28:03;101647.16;;;10.97;nan
70758;BME280;59316;52.964;7.102;2023-03-15T10:38:48;101655.25;;;10.93;nan
70758;BME280;59316;52.964;7.102;2023-03-15T10:44:16;101655.25;;;11.10;nan
70758;BME280;59316;52.964;7.102;2023-03-15T10:49:42;101667.84;;;11.74;nan
70758;BME280;59316;52.964;7.102;2023-03-15T10:55:10;101660.53;;;11.28;nan
70758;BME280;59316;52.964;7.102;2023-03-15T11:00:33;101675.22;;;12.16;nan
70758;BME280;59316;52.964;7.102;2023-03-15T11:05:57;101693.13;;;11.75;nan
70758;BME280;59316;52.964;7.102;2023-03-15T11:11:19;101679.47;;;12.53;nan
70758;BME280;59316;52.964;7.102;2023-03-15T11:16:40;101693.91;;;12.60;nan
70758;BME280;59316;52.964;7.102;2023-03-15T11:22:02;101703.31;;;12.30;nan
70758;BME280;59316;52.964;7.102;2023-03-15T11:27:25;101693.44;;;12.69;nan
70758;BME280;59316;52.964;7.102;2023-03-15T11:32:48;101714.00;;;11.94;nan
70758;BME280;59316;52.964;7.102;2023-03-15T11:38:13;101708.66;;;12.62;nan
70758;BME280;59316;52.964;7.102;2023-03-15T11:49:47;101712.25;;;13.24;nan
70758;BME280;59316;52.964;7.102;2023-03-15T11:55:16;101723.81;;;12.06;nan
70758;BME280;59316;52.964;7.102;2023-03-15T12:11:38;101708.16;;;13.04;nan
70758;BME280;59316;52.964;7.102;2023-03-15T12:22:53;101700.75;;;14.02;nan
70758;BME280;59316;52.964;7.102;2023-03-15T12:28:52;101713.06;;;14.16;nan
70758;BME280;59316;52.964;7.102;2023-03-15T12:34:36;101723.19;;;12.36;nan
70758;BME280;59316;52.964;7.102;2023-03-15T12:45:38;101705.69;;;13.01;nan
70758;BME280;59316;52.964;7.102;2023-03-15T12:51:02;101706.56;;;13.62;nan
70758;BME280;59316;52.964;7.102;2023-03-15T12:56:43;101704.06;;;13.44;nan
70758;BME280;59316;52.964;7.102;2023-03-15T13:02:29;101696.41;;;14.01;nan
70758;BME280;59316;52.964;7.102;2023-03-15T13:08:07;101693.28;;;14.52;nan
70758;BME280;59316;52.964;7.102;2023-03-15T13:19:31;101691.59;;;14.65;nan
70758;BME280;59316;52.964;7.102;2023-03-15T13:30:49;101712.63;;;13.93;nan
70758;BME280;59316;52.964;7.102;2023-03-15T13:36:14;101709.13;;;13.17;nan
70758;BME280;59316;52.964;7.102;2023-03-15T13:41:37;101713.56;;;13.47;nan
70758;BME280;59316;52.964;7.102;2023-03-15T13:46:59;101715.44;;;13.75;nan
70758;BME280;59316;52.964;7.102;2023-03-15T13:52:21;101726.78;;;12.67;nan
70758;BME280;59316;52.964;7.102;2023-03-15T13:57:42;101724.25;;;12.97;nan
70758;BME280;59316;52.964;7.102;2023-03-15T14:03:13;101729.38;;;13.31;nan
70758;BME280;59316;52.964;7.102;2023-03-15T14:08:40;101729.53;;;13.58;nan
70758;BME280;59316;52.964;7.102;2023-03-15T14:14:14;101727.22;;;13.38;nan
70758;BME280;59316;52.964;7.102;2023-03-15T14:19:51;101732.94;;;12.66;nan
70758;BME280;59316;52.964;7.102;2023-03-15T14:25:21;101741.50;;;11.67;nan
70758;BME280;59316;52.964;7.102;2023-03-15T14:30:50;101743.31;;;10.56;nan
70758;BME280;59316;52.964;7.102;2023-03-15T14:36:40;101745.97;;;11.83;nan
70758;BME280;59316;52.964;7.102;2023-03-15T14:42:04;101744.75;;;12.08;nan
70758;BME280;59316;52.964;7.102;2023-03-15T14:47:26;101751.44;;;10.88;nan
70758;BME280;59316;52.964;7.102;2023-03-15T14:52:49;101760.66;;;9.76;nan
70758;BME280;59316;52.964;7.102;2023-03-15T14:58:19;101771.09;;;9.76;nan
70758;BME280;59316;52.964;7.102;2023-03-15T15:03:44;101760.47;;;10.01;nan
70758;BME280;59316;52.964;7.102;2023-03-15T15:09:09;101768.63;;;9.73;nan
70758;BME280;59316;52.964;7.102;2023-03-15T15:14:31;101767.97;;;11.07;nan
70758;BME280;59316;52.964;7.102;2023-03-15T15:19:52;101761.00;;;11.97;nan
70758;BME280;59316;52.964;7.102;2023-03-15T15:25:21;101756.88;;;12.26;nan
70758;BME280;59316;52.964;7.102;2023-03-15T15:30:43;101761.88;;;11.80;nan
70758;BME280;59316;52.964;7.102;2023-03-15T15:36:06;101769.13;;;11.01;nan
70758;BME280;59316;52.964;7.102;2023-03-15T15:41:34;101767.81;;;11.10;nan
70758;BME280;59316;52.964;7.102;2023-03-15T15:46:56;101767.81;;;10.32;nan
70758;BME280;59316;52.964;7.102;2023-03-15T15:52:17;101772.88;;;9.96;nan
70758;BME280;59316;52.964;7.102;2023-03-15T15:57:39;101771.44;;;9.46;nan
70758;BME280;59316;52.964;7.102;2023-03-15T16:03:01;101774.44;;;8.91;nan
70758;BME280;59316;52.964;7.102;2023-03-15T16:08:24;101771.78;;;8.45;nan
70758;BME280;59316;52.964;7.102;2023-03-15T16:13:46;101780.88;;;8.07;nan
70758;BME280;59316;52.964;7.102;2023-03-15T16:19:10;101789.88;;;7.70;nan
70758;BME280;59316;52.964;7.102;2023-03-15T16:24:32;101789.88;;;7.44;nan
70758;BME280;59316;52.964;7.102;2023-03-15T16:29:55;101794.69;;;7.28;nan
70758;BME280;59316;52.964;7.102;2023-03-15T16:35:17;101794.75;;;6.96;nan
70758;BME280;59316;52.964;7.102;2023-03-15T16:40:40;101802.31;;;6.74;nan
70758;BME280;59316;52.964;7.102;2023-03-15T16:46:11;101802.03;;;6.53;nan
70758;BME280;59316;52.964;7.102;2023-03-15T16:51:34;101811.00;;;6.41;nan
70758;BME280;59316;52.964;7.102;2023-03-15T16:56:57;101818.75;;;6.10;nan
70758;BME280;59316;52.964;7.102;2023-03-15T17:02:23;101824.91;;;5.70;nan
70758;BME280;59316;52.964;7.102;2023-03-15T17:07:48;101830.78;;;5.39;nan
70758;BME280;59316;52.964;7.102;2023-03-15T17:13:13;101826.31;;;5.06;nan
70758;BME280;59316;52.964;7.102;2023-03-15T17:18:36;101830.31;;;4.77;nan
70758;BME280;59316;52.964;7.102;2023-03-15T17:23:57;101837.66;;;4.55;nan
70758;BME280;59316;52.964;7.102;2023-03-15T17:29:19;101835.56;;;4.27;nan
70758;BME280;59316;52.964;7.102;2023-03-15T17:34:41;101824.66;;;4.08;nan
70758;BME280;59316;52.964;7.102;2023-03-15T17:40:05;101827.97;;;3.63;nan
70758;BME280;59316;52.964;7.102;2023-03-15T17:45:33;101836.50;;;3.08;nan
70758;BME280;59316;52.964;7.102;2023-03-15T17:50:55;101833.63;;;2.56;nan
70758;BME280;59316;52.964;7.102;2023-03-15T17:56:17;101832.97;;;2.39;nan
70758;BME280;59316;52.964;7.102;2023-03-15T18:01:42;101842.34;;;2.47;nan
70758;BME280;59316;52.964;7.102;2023-03-15T18:07:05;101844.09;;;2.44;nan
70758;BME280;59316;52.964;7.102;2023-03-15T18:12:26;101843.41;;;2.26;nan
70758;BME280;59316;52.964;7.102;2023-03-15T18:17:48;101860.81;;;2.03;nan
70758;BME280;59316;52.964;7.102;2023-03-15T18:23:12;101877.34;;;1.72;nan
70758;BME280;59316;52.964;7.102;2023-03-15T18:28:35;101867.16;;;1.47;nan
70758;BME280;59316;52.964;7.102;2023-03-15T18:33:57;101881.72;;;1.61;nan
70758;BME280;59316;52.964;7.102;2023-03-15T18:39:19;101887.78;;;1.52;nan
70758;BME280;59316;52.964;7.102;2023-03-15T18:44:40;101895.63;;;1.26;nan
70758;BME280;59316;52.964;7.102;2023-03-15T18:50:02;101908.56;;;1.16;nan
70758;BME280;59316;52.964;7.102;2023-03-15T18:55:30;101910.13;;;1.52;nan
70758;BME280;59316;52.964;7.102;2023-03-15T19:00:52;101912.75;;;1.42;nan
70758;BME280;59316;52.964;7.102;2023-03-15T19:06:13;101916.16;;;1.46;nan
70758;BME280;59316;52.964;7.102;2023-03-15T19:11:35;101911.00;;;1.46;nan
70758;BME280;59316;52.964;7.102;2023-03-15T19:16:56;101912.84;;;1.24;nan
70758;BME280;59316;52.964;7.102;2023-03-15T19:22:18;101902.59;;;0.96;nan
70758;BME280;59316;52.964;7.102;2023-03-15T19:27:40;101897.50;;;0.77;nan
70758;BME280;59316;52.964;7.102;2023-03-15T19:33:03;101894.97;;;0.57;nan
70758;BME280;59316;52.964;7.102;2023-03-15T19:38:24;101895.81;;;0.59;nan
70758;BME280;59316;52.964;7.102;2023-03-15T19:43:46;101903.53;;;0.58;nan
70758;BME280;59316;52.964;7.102;2023-03-15T19:49:08;101912.09;;;0.80;nan
70758;BME280;59316;52.964;7.102;2023-03-15T19:54:29;101909.56;;;0.58;nan
70758;BME280;59316;52.964;7.102;2023-03-15T19:59:50;101908.69;;;0.42;nan
70758;BME280;59316;52.964;7.102;2023-03-15T20:05:14;101918.13;;;0.37;nan
70758;BME280;59316;52.964;7.102;2023-03-15T20:10:37;101910.44;;;0.34;nan
70758;BME280;59316;52.964;7.102;2023-03-15T20:15:58;101914.69;;;0.27;nan
70758;BME280;59316;52.964;7.102;2023-03-15T20:21:20;101908.69;;;0.08;nan
70758;BME280;59316;52.964;7.102;2023-03-15T20:26:42;101906.06;;;-0.17;nan
70758;BME280;59316;52.964;7.102;2023-03-15T20:32:03;101900.09;;;-0.12;nan
70758;BME280;59316;52.964;7.102;2023-03-15T20:37:28;101888.91;;;-0.35;nan
70758;BME280;59316;52.964;7.102;2023-03-15T20:42:50;101902.63;;;-0.31;nan
70758;BME280;59316;52.964;7.102;2023-03-15T20:48:11;101900.91;;;-0.34;nan
70758;BME280;59316;52.964;7.102;2023-03-15T20:53:34;101904.28;;;-0.49;nan
70758;BME280;59316;52.964;7.102;2023-03-15T20:58:56;101900.81;;;-0.58;nan
70758;BME280;59316;52.964;7.102;2023-03-15T21:04:20;101907.69;;;-0.60;nan
70758;BME280;59316;52.964;7.102;2023-03-15T21:09:42;101908.50;;;-0.72;nan
70758;BME280;59316;52.964;7.102;2023-03-15T21:15:04;101905.91;;;-0.78;nan
70758;BME280;59316;52.964;7.102;2023-03-15T21:20:27;101863.75;;;-1.21;nan
70758;BME280;59316;52.964;7.102;2023-03-15T21:25:56;101893.03;;;-0.85;nan
70758;BME280;59316;52.964;7.102;2023-03-15T21:31:18;101896.41;;;-0.93;nan
70758;BME280;59316;52.964;7.102;2023-03-15T21:36:43;101887.88;;;-0.83;nan
70758;BME280;59316;52.964;7.102;2023-03-15T21:42:05;101902.41;;;-0.90;nan
70758;BME280;59316;52.964;7.102;2023-03-15T21:47:27;101893.00;;;-0.88;nan
70758;BME280;59316;52.964;7.102;2023-03-15T21:52:49;101888.75;;;-0.80;nan
70758;BME280;59316;52.964;7.102;2023-03-15T21:58:10;101885.25;;;-0.96;nan
70758;BME280;59316;52.964;7.102;2023-03-15T22:03:33;101884.41;;;-0.98;nan
70758;BME280;59316;52.964;7.102;2023-03-15T22:08:56;101888.78;;;-0.73;nan
70758;BME280;59316;52.964;7.102;2023-03-15T22:14:17;101886.19;;;-0.78;nan
70758;BME280;59316;52.964;7.102;2023-03-15T22:19:39;101886.25;;;-0.63;nan
70758;BME280;59316;52.964;7.102;2023-03-15T22:25:00;101884.53;;;-0.67;nan
70758;BME280;59316;52.964;7.102;2023-03-15T22:30:22;101877.69;;;-0.58;nan
70758;BME280;59316;52.964;7.102;2023-03-15T22:35:43;101868.34;;;-0.36;nan
70758;BME280;59316;52.964;7.102;2023-03-15T22:41:07;101870.06;;;-0.24;nan
70758;BME280;59316;52.964;7.102;2023-03-15T22:46:30;101862.34;;;-0.34;nan
70758;BME280;59316;52.964;7.102;2023-03-15T22:51:54;101866.66;;;-0.16;nan
70758;BME280;59316;52.964;7.102;2023-03-15T22:57:15;101859.78;;;0.30;nan
70758;BME280;59316;52.964;7.102;2023-03-15T23:02:37;101863.19;;;0.66;nan
70758;BME280;59316;52.964;7.102;2023-03-15T23:08:04;101860.56;;;0.89;nan
70758;BME280;59316;52.964;7.102;2023-03-15T23:13:26;101865.63;;;1.14;nan
70758;BME280;59316;52.964;7.102;2023-03-15T23:18:47;101867.19;;;1.44;nan
70758;BME280;59316;52.964;7.102;2023-03-15T23:24:08;101874.91;;;1.50;nan
70758;BME280;59316;52.964;7.102;2023-03-15T23:29:31;101863.56;;;1.76;nan
70758;BME280;59316;52.964;7.102;2023-03-15T23:35:12;101860.03;;;1.91;nan
70758;BME280;59316;52.964;7.102;2023-03-15T23:40:34;101854.81;;;1.97;nan
70758;BME280;59316;52.964;7.102;2023-03-15T23:46:02;101853.94;;;2.02;nan
70758;BME280;59316;52.964;7.102;2023-03-15T23:51:24;101856.38;;;2.19;nan
70758;BME280;59316;52.964;7.102;2023-03-15T23:56:46;101856.28;;;2.31;nan
